Time;durP1;ratioP1;P1;durP2;ratioP2;P2;SDS_P1;SDS_P2;PMS_P1;PMS_P2;Temp;Humidity;BMP_temperature;BMP_pressure;BME280_temperature;BME280_humidity;BME280_pressure;Samples;Min_cycle;Max_cycle;Signal;HPM_P1;HPM_P2
2021/04/04 00:01:23;;;;;;;19.88;5.97;;;;;;;;;;5116035;28;20280;-67
2021/04/04 00:03:50;;;;;;;13.40;5.03;;;;;;;;;;5115832;28;20197;-67
2021/04/04 00:06:17;;;;;;;18.70;6.05;;;;;;;;;;5115732;28;20199;-67
2021/04/04 00:08:44;;;;;;;19.02;6.05;;;;;;;;;;5115721;28;20253;-67
2021/04/04 00:11:11;;;;;;;13.02;5.72;;;;;;;;;;5115656;28;20280;-68
2021/04/04 00:13:38;;;;;;;15.95;5.40;;;;;;;;;;5115756;28;20284;-67
2021/04/04 00:16:05;;;;;;;15.00;5.75;;;;;;;;;;5115061;28;20316;-67
2021/04/04 00:18:32;;;;;;;26.02;7.35;;;;;;;;;;5114510;28;20645;-67
2021/04/04 00:21:00;;;;;;;22.55;5.85;;;;;;;;;;5116307;28;20276;-67
2021/04/04 00:23:27;;;;;;;15.95;5.95;;;;;;;;;;5115446;28;20237;-67
2021/04/04 00:25:53;;;;;;;17.33;6.45;;;;;;;;;;5115312;28;20288;-66
2021/04/04 00:28:20;;;;;;;16.30;6.47;;;;;;;;;;5115325;28;20280;-66
2021/04/04 00:30:47;;;;;;;23.25;6.78;;;;;;;;;;5116051;28;20276;-67
2021/04/04 00:33:14;;;;;;;17.30;6.80;;;;;;;;;;5114933;28;20200;-66
2021/04/04 00:35:40;;;;;;;13.93;5.95;;;;;;;;;;5114871;28;20278;-67
2021/04/04 00:38:09;;;;;;;14.00;5.80;;;;;;;;;;5115073;28;20290;-66
2021/04/04 00:40:36;;;;;;;13.48;6.20;;;;;;;;;;5115423;28;20220;-66
2021/04/04 00:43:03;;;;;;;15.13;6.28;;;;;;;;;;5115340;28;20679;-67
2021/04/04 00:45:31;;;;;;;11.07;6.00;;;;;;;;;;5115210;28;20284;-66
2021/04/04 00:47:58;;;;;;;13.40;6.88;;;;;;;;;;5114633;28;20281;-66
2021/04/04 00:50:26;;;;;;;28.27;6.80;;;;;;;;;;5115257;28;20281;-66
2021/04/04 00:52:52;;;;;;;10.07;5.50;;;;;;;;;;5115350;28;20276;-66
2021/04/04 00:55:20;;;;;;;21.35;6.78;;;;;;;;;;5115071;28;20214;-66
2021/04/04 00:57:49;;;;;;;15.43;6.60;;;;;;;;;;5114719;28;20227;-66
2021/04/04 01:00:17;;;;;;;16.60;7.13;;;;;;;;;;5114694;28;20201;-66
2021/04/04 01:02:44;;;;;;;16.35;7.30;;;;;;;;;;5114318;28;20281;-66
2021/04/04 01:05:13;;;;;;;15.75;7.13;;;;;;;;;;5114677;28;20562;-65
2021/04/04 01:07:42;;;;;;;20.33;7.50;;;;;;;;;;5114361;28;20233;-65
2021/04/04 01:10:10;;;;;;;14.35;6.70;;;;;;;;;;5114247;28;20233;-65
2021/04/04 01:12:41;;;;;;;17.05;6.72;;;;;;;;;;5114484;28;20189;-65
2021/04/04 01:15:11;;;;;;;21.17;7.20;;;;;;;;;;5114518;28;20205;-66
2021/04/04 01:17:38;;;;;;;11.85;6.95;;;;;;;;;;5114587;28;20227;-66
2021/04/04 01:20:14;;;;;;;12.68;6.43;;;;;;;;;;5114652;28;20288;-66
2021/04/04 01:22:58;;;;;;;13.52;6.07;;;;;;;;;;5114814;28;20234;-66
2021/04/04 01:25:27;;;;;;;9.75;5.28;;;;;;;;;;5113958;28;20698;-65
2021/04/04 01:27:58;;;;;;;23.67;6.78;;;;;;;;;;5114202;28;20281;-65
2021/04/04 01:30:28;;;;;;;15.57;5.68;;;;;;;;;;5113952;28;20268;-65
2021/04/04 01:32:55;;;;;;;14.55;6.60;;;;;;;;;;5113835;28;20283;-66
2021/04/04 01:35:23;;;;;;;17.25;6.60;;;;;;;;;;5114100;28;20249;-66
2021/04/04 01:37:52;;;;;;;11.27;4.95;;;;;;;;;;5114337;28;20233;-66
2021/04/04 01:40:20;;;;;;;20.30;6.20;;;;;;;;;;5114095;28;20255;-66
2021/04/04 01:42:47;;;;;;;20.70;6.32;;;;;;;;;;5113717;28;20207;-67
2021/04/04 01:45:16;;;;;;;12.98;6.88;;;;;;;;;;5113990;28;20236;-66
2021/04/04 01:47:44;;;;;;;17.83;7.13;;;;;;;;;;5114091;28;20248;-64
2021/04/04 01:50:12;;;;;;;16.73;6.95;;;;;;;;;;5114010;28;20280;-65
2021/04/04 01:52:39;;;;;;;12.25;6.32;;;;;;;;;;5114038;28;20280;-65
2021/04/04 01:55:06;;;;;;;19.75;6.68;;;;;;;;;;5113618;28;20778;-64
2021/04/04 01:57:34;;;;;;;15.35;6.32;;;;;;;;;;5113636;28;20199;-64
2021/04/04 02:00:01;;;;;;;21.40;6.15;;;;;;;;;;5113642;28;20666;-65
2021/04/04 02:02:29;;;;;;;22.30;6.63;;;;;;;;;;5114042;28;20218;-64
2021/04/04 02:04:57;;;;;;;23.00;6.57;;;;;;;;;;5113573;28;20209;-64
2021/04/04 02:07:24;;;;;;;20.38;7.15;;;;;;;;;;5113305;28;20355;-64
2021/04/04 02:09:52;;;;;;;19.60;7.38;;;;;;;;;;5113548;28;20747;-64
2021/04/04 02:12:19;;;;;;;25.95;7.35;;;;;;;;;;5113838;28;20197;-65
2021/04/04 02:14:48;;;;;;;17.50;7.43;;;;;;;;;;5113715;28;20315;-65
2021/04/04 02:17:15;;;;;;;23.80;6.13;;;;;;;;;;5113442;28;20280;-65
2021/04/04 02:19:42;;;;;;;16.23;6.65;;;;;;;;;;5113732;28;20229;-65
2021/04/04 02:22:09;;;;;;;14.20;6.07;;;;;;;;;;5114094;28;20285;-64
2021/04/04 02:24:36;;;;;;;13.02;5.30;;;;;;;;;;5113635;28;20659;-65
2021/04/04 02:27:03;;;;;;;12.25;6.10;;;;;;;;;;5114141;28;20235;-65
2021/04/04 02:29:31;;;;;;;15.50;5.70;;;;;;;;;;5114418;28;20242;-65
2021/04/04 02:31:59;;;;;;;22.80;6.18;;;;;;;;;;5113290;28;20252;-65
2021/04/04 02:34:27;;;;;;;21.38;5.95;;;;;;;;;;5113544;28;20660;-65
2021/04/04 02:36:55;;;;;;;11.85;4.97;;;;;;;;;;5113542;28;20379;-65
2021/04/04 02:39:25;;;;;;;13.13;5.15;;;;;;;;;;5113609;28;20197;-64
2021/04/04 02:41:52;;;;;;;16.20;5.50;;;;;;;;;;5116660;28;20269;-65
2021/04/04 02:44:19;;;;;;;15.55;4.97;;;;;;;;;;5117403;28;20221;-64
2021/04/04 02:46:49;;;;;;;9.00;4.55;;;;;;;;;;5117506;28;20618;-64
2021/04/04 02:49:16;;;;;;;12.43;4.53;;;;;;;;;;5117475;28;20224;-65
2021/04/04 02:51:45;;;;;;;9.85;5.63;;;;;;;;;;5116950;28;20197;-65
2021/04/04 02:54:16;;;;;;;13.05;4.70;;;;;;;;;;5116905;28;20285;-65
2021/04/04 02:56:46;;;;;;;15.15;5.85;;;;;;;;;;5117480;28;20188;-64
2021/04/04 02:59:15;;;;;;;11.35;4.88;;;;;;;;;;5117160;28;20296;-65
2021/04/04 03:01:43;;;;;;;12.38;5.85;;;;;;;;;;5117052;28;20277;-66
2021/04/04 03:04:10;;;;;;;18.13;6.68;;;;;;;;;;5117013;28;20280;-65
2021/04/04 03:06:40;;;;;;;12.65;6.28;;;;;;;;;;5116669;28;20283;-64
2021/04/04 03:09:09;;;;;;;26.45;7.75;;;;;;;;;;5117190;28;20236;-64
2021/04/04 03:11:37;;;;;;;16.08;7.95;;;;;;;;;;5116860;28;20231;-65
2021/04/04 03:14:04;;;;;;;20.55;7.28;;;;;;;;;;5116482;28;20737;-65
2021/04/04 03:16:32;;;;;;;11.68;6.72;;;;;;;;;;5116352;28;20286;-64
2021/04/04 03:18:59;;;;;;;14.10;8.13;;;;;;;;;;5116398;28;20335;-64
2021/04/04 03:21:26;;;;;;;18.15;8.80;;;;;;;;;;5116673;28;20243;-64
2021/04/04 03:23:53;;;;;;;14.20;7.90;;;;;;;;;;5116316;28;20194;-64
2021/04/04 03:26:21;;;;;;;15.20;6.95;;;;;;;;;;5116919;28;20292;-64
2021/04/04 03:28:48;;;;;;;17.95;8.00;;;;;;;;;;5116527;28;20215;-66
2021/04/04 03:31:15;;;;;;;18.13;7.22;;;;;;;;;;5116469;28;20276;-65
2021/04/04 03:33:42;;;;;;;10.13;6.75;;;;;;;;;;5116110;28;20237;-65
2021/04/04 03:36:10;;;;;;;11.60;5.90;;;;;;;;;;5116139;28;20219;-65
2021/04/04 03:38:36;;;;;;;29.83;5.68;;;;;;;;;;5116806;28;20227;-65
2021/04/04 03:41:03;;;;;;;13.65;5.97;;;;;;;;;;5116011;28;20675;-64
2021/04/04 03:43:32;;;;;;;19.05;6.57;;;;;;;;;;5117047;28;20592;-64
2021/04/04 03:46:02;;;;;;;21.08;6.05;;;;;;;;;;5115888;28;20297;-64
2021/04/04 03:48:30;;;;;;;21.23;6.60;;;;;;;;;;5115803;28;20189;-64
2021/04/04 03:50:57;;;;;;;18.35;5.93;;;;;;;;;;5116164;28;20303;-64
2021/04/04 03:53:28;;;;;;;15.57;5.85;;;;;;;;;;5116062;28;20197;-65
2021/04/04 03:55:55;;;;;;;13.82;4.78;;;;;;;;;;5116116;28;20298;-65
2021/04/04 03:58:23;;;;;;;19.00;6.03;;;;;;;;;;5115919;28;20275;-66
2021/04/04 04:00:51;;;;;;;18.83;6.00;;;;;;;;;;5115900;28;20275;-65
2021/04/04 04:03:20;;;;;;;16.88;5.53;;;;;;;;;;5116413;28;20284;-65
2021/04/04 04:05:48;;;;;;;16.95;6.10;;;;;;;;;;5115439;28;20288;-65
2021/04/04 04:08:15;;;;;;;14.95;5.55;;;;;;;;;;5115432;28;20234;-65
2021/04/04 04:10:42;;;;;;;12.60;5.72;;;;;;;;;;5115657;28;20233;-64
2021/04/04 04:13:09;;;;;;;19.30;5.82;;;;;;;;;;5115641;28;20232;-64
2021/04/04 04:15:36;;;;;;;6.95;4.57;;;;;;;;;;5115847;28;20310;-65
2021/04/04 04:18:05;;;;;;;10.50;5.63;;;;;;;;;;5115547;28;20280;-64
2021/04/04 04:20:33;;;;;;;17.25;5.38;;;;;;;;;;5115193;28;20286;-65
2021/04/04 04:23:00;;;;;;;9.75;5.85;;;;;;;;;;5115431;28;20618;-65
2021/04/04 04:25:27;;;;;;;16.88;6.28;;;;;;;;;;5115063;28;20283;-65
2021/04/04 04:27:55;;;;;;;10.18;5.13;;;;;;;;;;5115355;28;20246;-65
2021/04/04 04:30:22;;;;;;;16.30;6.47;;;;;;;;;;5115314;28;20283;-64
2021/04/04 04:32:51;;;;;;;13.93;5.97;;;;;;;;;;5115239;28;20280;-64
2021/04/04 04:35:18;;;;;;;19.40;7.50;;;;;;;;;;5115430;28;20220;-64
2021/04/04 04:37:46;;;;;;;15.07;5.82;;;;;;;;;;5115461;28;20335;-64
2021/04/04 04:40:13;;;;;;;14.68;7.00;;;;;;;;;;5115361;28;20609;-65
2021/04/04 04:42:41;;;;;;;11.07;6.28;;;;;;;;;;5115147;28;20616;-65
2021/04/04 04:45:12;;;;;;;15.48;6.30;;;;;;;;;;5115277;28;20290;-65
2021/04/04 04:47:39;;;;;;;19.55;6.38;;;;;;;;;;5115267;28;20524;-65
2021/04/04 04:50:06;;;;;;;14.05;6.72;;;;;;;;;;5114918;28;20197;-65
2021/04/04 04:52:33;;;;;;;16.00;8.10;;;;;;;;;;5114593;28;20285;-65
2021/04/04 04:55:00;;;;;;;24.05;7.90;;;;;;;;;;5115074;28;20303;-64
2021/04/04 04:57:28;;;;;;;13.80;6.88;;;;;;;;;;5110305;28;20682;-64
2021/04/04 04:59:56;;;;;;;14.68;6.65;;;;;;;;;;5104210;28;20254;-64
2021/04/04 05:02:23;;;;;;;20.60;7.53;;;;;;;;;;5113938;28;20279;-64
2021/04/04 05:04:50;;;;;;;14.07;7.38;;;;;;;;;;5113250;28;20659;-64
2021/04/04 05:07:18;;;;;;;13.30;7.53;;;;;;;;;;5113692;28;20246;-64
2021/04/04 05:09:46;;;;;;;20.45;7.88;;;;;;;;;;5113743;28;20188;-64
2021/04/04 05:12:18;;;;;;;16.83;8.20;;;;;;;;;;5113948;28;20189;-64
2021/04/04 05:14:45;;;;;;;17.50;8.13;;;;;;;;;;5114657;28;20587;-64
2021/04/04 05:17:12;;;;;;;15.55;9.50;;;;;;;;;;5113769;28;20724;-64
2021/04/04 05:19:39;;;;;;;13.10;8.02;;;;;;;;;;5114415;28;20653;-64
2021/04/04 05:22:05;;;;;;;16.50;7.80;;;;;;;;;;5114749;28;20594;-64
2021/04/04 05:24:32;;;;;;;17.10;9.52;;;;;;;;;;5114029;28;20197;-64
2021/04/04 05:26:59;;;;;;;17.95;9.15;;;;;;;;;;5113892;28;20657;-64
2021/04/04 05:29:27;;;;;;;18.27;7.40;;;;;;;;;;5113862;28;20819;-64
2021/04/04 05:31:54;;;;;;;21.70;6.65;;;;;;;;;;5114188;28;20249;-64
2021/04/04 05:34:21;;;;;;;15.63;7.03;;;;;;;;;;5113672;28;20235;-64
2021/04/04 05:36:49;;;;;;;20.20;8.20;;;;;;;;;;5113303;28;20757;-64
2021/04/04 05:39:17;;;;;;;15.40;5.57;;;;;;;;;;5114085;28;20225;-64
2021/04/04 05:41:47;;;;;;;12.63;5.97;;;;;;;;;;5114535;28;20622;-65
2021/04/04 05:44:16;;;;;;;13.68;4.30;;;;;;;;;;5113792;28;20181;-64
2021/04/04 05:46:45;;;;;;;11.23;5.32;;;;;;;;;;5113578;28;20230;-64
2021/04/04 05:49:17;;;;;;;12.35;4.60;;;;;;;;;;5114045;28;20559;-65
2021/04/04 05:51:46;;;;;;;8.02;5.20;;;;;;;;;;5113573;28;20703;-64
2021/04/04 05:54:31;;;;;;;10.60;4.28;;;;;;;;;;5113322;28;20236;-64
2021/04/04 05:57:00;;;;;;;18.20;5.50;;;;;;;;;;5113297;28;20309;-64
2021/04/04 05:59:31;;;;;;;21.02;5.28;;;;;;;;;;5113921;28;20231;-64
2021/04/04 06:02:15;;;;;;;15.23;5.70;;;;;;;;;;5113977;28;20268;-64
2021/04/04 06:04:53;;;;;;;17.00;4.57;;;;;;;;;;5106552;28;20280;-64
2021/04/04 06:07:44;;;;;;;8.48;3.75;;;;;;;;;;5113286;28;20287;-66
2021/04/04 06:10:12;;;;;;;10.45;3.80;;;;;;;;;;5114265;28;20644;-64
2021/04/04 06:12:44;;;;;;;9.35;4.28;;;;;;;;;;5114087;28;20280;-65
2021/04/04 06:15:18;;;;;;;12.20;3.90;;;;;;;;;;5114084;28;20294;-64
2021/04/04 06:17:47;;;;;;;10.57;3.53;;;;;;;;;;5118742;28;20214;-64
2021/04/04 06:20:27;;;;;;;6.30;3.80;;;;;;;;;;5117891;28;20280;-65
2021/04/04 06:23:07;;;;;;;7.20;3.53;;;;;;;;;;5117453;28;20527;-64
2021/04/04 06:25:40;;;;;;;11.82;4.00;;;;;;;;;;5118555;28;20218;-64
2021/04/04 06:28:10;;;;;;;8.07;3.78;;;;;;;;;;5117602;28;20249;-64
2021/04/04 06:30:50;;;;;;;11.90;4.43;;;;;;;;;;5117580;28;20281;-64
2021/04/04 06:33:22;;;;;;;7.95;3.55;;;;;;;;;;5118034;28;20623;-64
2021/04/04 06:36:07;;;;;;;6.00;3.67;;;;;;;;;;5117327;28;20224;-64
2021/04/04 06:38:51;;;;;;;8.57;3.70;;;;;;;;;;5117884;28;20285;-64
2021/04/04 06:41:29;;;;;;;8.52;4.05;;;;;;;;;;5117660;28;20264;-64
2021/04/04 06:44:03;;;;;;;5.80;4.10;;;;;;;;;;5116914;28;20190;-64
2021/04/04 06:46:38;;;;;;;17.80;4.70;;;;;;;;;;5117614;28;20232;-64
2021/04/04 06:49:07;;;;;;;10.85;3.70;;;;;;;;;;5117012;28;20272;-65
2021/04/04 06:51:41;;;;;;;12.73;4.60;;;;;;;;;;5116938;28;20282;-64
2021/04/04 06:54:12;;;;;;;10.98;4.80;;;;;;;;;;5117131;28;20640;-64
2021/04/04 06:56:51;;;;;;;13.07;5.40;;;;;;;;;;5117337;28;20241;-64
2021/04/04 06:59:19;;;;;;;20.55;6.18;;;;;;;;;;5117202;28;20272;-63
2021/04/04 07:01:57;;;;;;;11.65;4.25;;;;;;;;;;5117025;28;20351;-64
2021/04/04 07:04:25;;;;;;;13.23;4.20;;;;;;;;;;5117213;28;20272;-64
2021/04/04 07:07:11;;;;;;;11.73;5.45;;;;;;;;;;5117078;28;20285;-62
2021/04/04 07:09:47;;;;;;;14.05;4.60;;;;;;;;;;5116927;28;20638;-63
2021/04/04 07:12:22;;;;;;;11.57;5.30;;;;;;;;;;5116864;28;20213;-63
2021/04/04 07:15:04;;;;;;;7.63;4.60;;;;;;;;;;5116469;28;20276;-63
2021/04/04 07:17:58;;;;;;;18.23;5.05;;;;;;;;;;5117391;28;20181;-61
2021/04/04 07:20:32;;;;;;;9.82;5.53;;;;;;;;;;5091920;28;20292;-65
2021/04/04 07:23:16;;;;;;;19.05;5.85;;;;;;;;;;5117214;28;20265;-64
2021/04/04 07:25:47;;;;;;;10.05;4.50;;;;;;;;;;5116581;28;20202;-65
2021/04/04 07:28:29;;;;;;;10.23;5.60;;;;;;;;;;5116368;28;20271;-65
2021/04/04 07:30:57;;;;;;;12.25;5.15;;;;;;;;;;5116435;28;20591;-65
2021/04/04 07:33:34;;;;;;;13.15;5.15;;;;;;;;;;5116478;28;20229;-65
2021/04/04 07:36:05;;;;;;;18.55;5.63;;;;;;;;;;5116241;28;20345;-65
2021/04/04 07:38:34;;;;;;;16.75;6.38;;;;;;;;;;5116605;28;20289;-66
2021/04/04 07:41:04;;;;;;;13.65;4.82;;;;;;;;;;5116425;28;20243;-65
2021/04/04 07:43:33;;;;;;;11.57;4.82;;;;;;;;;;5116335;28;20181;-65
2021/04/04 07:46:04;;;;;;;15.13;5.00;;;;;;;;;;5115905;28;20238;-65
2021/04/04 07:48:34;;;;;;;9.02;5.00;;;;;;;;;;5116181;28;20212;-66
2021/04/04 07:51:03;;;;;;;10.90;4.35;;;;;;;;;;5115437;28;20272;-66
2021/04/04 07:53:33;;;;;;;16.77;6.05;;;;;;;;;;5115442;28;20197;-65
2021/04/04 07:56:02;;;;;;;20.30;5.50;;;;;;;;;;5115539;28;20205;-66
2021/04/04 07:58:31;;;;;;;9.32;5.05;;;;;;;;;;5115483;28;20729;-65
2021/04/04 08:01:01;;;;;;;7.63;3.38;;;;;;;;;;5115870;28;20208;-65
2021/04/04 08:03:33;;;;;;;6.00;3.42;;;;;;;;;;5115692;28;20631;-65
2021/04/04 08:06:02;;;;;;;7.05;2.97;;;;;;;;;;5115542;28;20732;-66
2021/04/04 08:08:36;;;;;;;9.30;3.50;;;;;;;;;;5115022;28;20772;-65
2021/04/04 08:11:09;;;;;;;7.20;3.10;;;;;;;;;;5115563;28;20592;-66
2021/04/04 08:13:41;;;;;;;5.20;3.60;;;;;;;;;;5115087;28;20277;-65
2021/04/04 08:16:11;;;;;;;11.07;3.70;;;;;;;;;;5115167;28;20761;-66
2021/04/04 08:18:38;;;;;;;7.38;3.38;;;;;;;;;;5116148;28;20202;-65
2021/04/04 08:21:05;;;;;;;10.05;3.65;;;;;;;;;;5115520;28;20241;-65
2021/04/04 08:23:36;;;;;;;4.30;3.33;;;;;;;;;;5114967;28;20285;-66
2021/04/04 08:26:05;;;;;;;8.82;3.28;;;;;;;;;;5115206;28;20217;-65
2021/04/04 08:28:34;;;;;;;4.30;2.58;;;;;;;;;;5115031;28;20231;-67
2021/04/04 08:31:03;;;;;;;3.85;2.30;;;;;;;;;;5114915;28;20603;-65
2021/04/04 08:33:34;;;;;;;3.85;2.20;;;;;;;;;;5114622;28;20237;-65
2021/04/04 08:36:02;;;;;;;3.10;2.55;;;;;;;;;;5114697;28;20240;-65
2021/04/04 08:38:31;;;;;;;5.72;2.13;;;;;;;;;;5114100;28;20237;-65
2021/04/04 08:40:59;;;;;;;6.40;2.63;;;;;;;;;;5115091;28;20258;-65
2021/04/04 08:43:26;;;;;;;3.90;2.40;;;;;;;;;;5114861;28;20682;-65
2021/04/04 08:45:56;;;;;;;2.65;2.03;;;;;;;;;;5115068;28;20210;-65
2021/04/04 08:48:25;;;;;;;2.92;2.30;;;;;;;;;;5114886;28;20227;-66
2021/04/04 08:50:53;;;;;;;2.22;2.03;;;;;;;;;;5114405;28;20659;-66
2021/04/04 08:53:24;;;;;;;4.65;1.80;;;;;;;;;;5114440;28;20590;-66
2021/04/04 08:55:52;;;;;;;2.45;2.25;;;;;;;;;;5114669;28;20296;-66
2021/04/04 08:58:19;;;;;;;6.93;2.05;;;;;;;;;;5114130;28;20232;-66
2021/04/04 09:00:46;;;;;;;3.70;2.40;;;;;;;;;;5114394;28;20290;-66
2021/04/04 09:03:18;;;;;;;2.55;2.35;;;;;;;;;;5114673;28;20276;-66
2021/04/04 09:05:45;;;;;;;3.83;3.05;;;;;;;;;;5114859;28;20516;-65
2021/04/04 09:08:14;;;;;;;3.95;2.30;;;;;;;;;;5113894;28;20264;-65
2021/04/04 09:10:41;;;;;;;8.88;2.70;;;;;;;;;;5114704;28;20244;-66
2021/04/04 09:13:08;;;;;;;5.30;2.63;;;;;;;;;;5114154;28;20315;-66
2021/04/04 09:15:43;;;;;;;6.95;4.65;;;;;;;;;;5114583;28;20253;-66
2021/04/04 09:18:10;;;;;;;9.77;2.83;;;;;;;;;;5114081;28;20697;-66
2021/04/04 09:20:39;;;;;;;4.40;2.92;;;;;;;;;;5114335;28;20192;-66
2021/04/04 09:23:06;;;;;;;6.65;3.15;;;;;;;;;;5114094;28;20204;-66
2021/04/04 09:25:35;;;;;;;4.93;2.75;;;;;;;;;;5114363;28;20233;-66
2021/04/04 09:28:06;;;;;;;3.35;2.13;;;;;;;;;;5114136;28;20295;-66
2021/04/04 09:30:34;;;;;;;2.42;1.75;;;;;;;;;;5114537;28;20285;-66
2021/04/04 09:33:02;;;;;;;3.15;1.90;;;;;;;;;;5113853;28;20559;-66
2021/04/04 09:35:29;;;;;;;3.33;2.60;;;;;;;;;;5113808;28;20218;-66
2021/04/04 09:38:00;;;;;;;2.33;1.75;;;;;;;;;;5113570;28;20232;-66
2021/04/04 09:40:27;;;;;;;7.25;2.15;;;;;;;;;;5114292;28;20220;-67
2021/04/04 09:42:55;;;;;;;4.22;2.45;;;;;;;;;;5114516;28;20201;-66
2021/04/04 09:45:23;;;;;;;4.53;2.38;;;;;;;;;;5113825;28;20201;-68
2021/04/04 09:47:50;;;;;;;2.83;2.20;;;;;;;;;;5113935;28;20235;-66
2021/04/04 09:50:18;;;;;;;12.32;2.40;;;;;;;;;;5114539;28;20559;-66
2021/04/04 09:52:45;;;;;;;3.05;1.90;;;;;;;;;;5113634;28;20246;-65
2021/04/04 09:55:14;;;;;;;2.30;2.10;;;;;;;;;;5113572;28;20784;-66
2021/04/04 09:57:41;;;;;;;3.08;2.20;;;;;;;;;;5113068;28;20647;-66
2021/04/04 10:00:19;;;;;;;2.33;2.13;;;;;;;;;;5113529;28;20232;-65
2021/04/04 10:02:49;;;;;;;3.55;2.42;;;;;;;;;;5114098;28;20193;-65
2021/04/04 10:05:25;;;;;;;2.65;2.03;;;;;;;;;;5113841;28;20558;-66
2021/04/04 10:07:52;;;;;;;4.88;2.28;;;;;;;;;;5113575;28;20235;-65
2021/04/04 10:10:28;;;;;;;5.45;2.38;;;;;;;;;;5114068;28;20224;-65
2021/04/04 10:12:59;;;;;;;9.60;2.92;;;;;;;;;;5113170;28;20276;-65
2021/04/04 10:15:26;;;;;;;2.55;2.33;;;;;;;;;;5113808;28;20217;-66
2021/04/04 10:17:57;;;;;;;2.17;1.85;;;;;;;;;;5113521;28;20236;-67
2021/04/04 10:20:33;;;;;;;6.13;3.60;;;;;;;;;;5113530;28;20272;-65
2021/04/04 10:23:00;;;;;;;5.72;2.40;;;;;;;;;;5113368;28;20284;-65
2021/04/04 10:25:27;;;;;;;2.15;1.98;;;;;;;;;;5113325;28;20284;-65
2021/04/04 10:28:01;;;;;;;3.78;2.38;;;;;;;;;;5113352;28;20236;-65
2021/04/04 10:30:31;;;;;;;8.23;2.85;;;;;;;;;;5113338;28;20722;-66
2021/04/04 10:32:58;;;;;;;3.53;2.63;;;;;;;;;;5113175;28;20203;-66
2021/04/04 10:35:29;;;;;;;5.53;2.38;;;;;;;;;;5113169;28;20320;-66
2021/04/04 10:38:02;;;;;;;4.85;2.10;;;;;;;;;;5113325;28;20237;-66
2021/04/04 10:40:40;;;;;;;2.75;2.20;;;;;;;;;;5113573;28;20649;-66
2021/04/04 10:43:07;;;;;;;3.72;2.38;;;;;;;;;;5113889;28;20217;-67
2021/04/04 10:45:35;;;;;;;4.13;2.25;;;;;;;;;;5113548;28;20233;-66
2021/04/04 10:48:06;;;;;;;4.00;2.40;;;;;;;;;;5113114;28;20289;-66
2021/04/04 10:50:33;;;;;;;5.05;2.67;;;;;;;;;;5113690;28;20716;-66
2021/04/04 10:53:00;;;;;;;3.28;2.60;;;;;;;;;;5113418;28;20234;-66
2021/04/04 10:55:27;;;;;;;2.80;2.60;;;;;;;;;;5113356;28;20225;-66
2021/04/04 10:57:55;;;;;;;4.38;2.88;;;;;;;;;;5113515;28;20302;-66
2021/04/04 11:00:22;;;;;;;5.03;2.78;;;;;;;;;;5113042;28;20659;-66
2021/04/04 11:02:50;;;;;;;4.65;2.85;;;;;;;;;;5116819;28;20195;-66
2021/04/04 11:05:20;;;;;;;3.38;2.65;;;;;;;;;;5116803;28;20671;-66
2021/04/04 11:07:48;;;;;;;4.28;3.00;;;;;;;;;;5117003;28;20282;-65
2021/04/04 11:10:15;;;;;;;3.28;2.42;;;;;;;;;;5116795;28;20193;-65
2021/04/04 11:12:42;;;;;;;7.53;3.58;;;;;;;;;;5116780;28;20198;-65
2021/04/04 11:15:12;;;;;;;3.88;2.80;;;;;;;;;;5117005;28;20200;-66
2021/04/04 11:17:39;;;;;;;3.35;2.83;;;;;;;;;;5117013;28;20264;-65
2021/04/04 11:20:10;;;;;;;5.30;3.35;;;;;;;;;;5116452;28;20284;-67
2021/04/04 11:22:40;;;;;;;4.95;3.30;;;;;;;;;;5116463;28;20228;-66
2021/04/04 11:25:09;;;;;;;6.53;3.42;;;;;;;;;;5114178;28;20193;-67
2021/04/04 11:27:40;;;;;;;6.05;3.05;;;;;;;;;;5095484;28;20203;-66
2021/04/04 11:30:07;;;;;;;4.43;2.85;;;;;;;;;;5096183;28;20198;-66
2021/04/04 11:32:34;;;;;;;6.40;3.15;;;;;;;;;;5096056;28;20226;-67
2021/04/04 11:35:01;;;;;;;4.68;2.80;;;;;;;;;;5095761;28;20753;-67
2021/04/04 11:37:39;;;;;;;4.05;3.05;;;;;;;;;;5096640;28;20309;-67
2021/04/04 11:40:12;;;;;;;2.60;2.40;;;;;;;;;;5095535;28;20288;-67
2021/04/04 11:42:40;;;;;;;5.00;3.10;;;;;;;;;;5095671;28;20237;-67
2021/04/04 11:45:07;;;;;;;4.88;2.45;;;;;;;;;;5095644;28;20286;-66
2021/04/04 11:47:34;;;;;;;6.55;3.00;;;;;;;;;;5095735;28;20290;-67
2021/04/04 11:50:00;;;;;;;4.72;3.28;;;;;;;;;;5095861;28;20281;-67
2021/04/04 11:52:48;;;;;;;4.45;2.88;;;;;;;;;;5101190;28;20291;-66
2021/04/04 11:55:17;;;;;;;2.60;2.40;;;;;;;;;;5095556;28;20194;-67
2021/04/04 11:57:45;;;;;;;4.35;3.75;;;;;;;;;;5095253;28;20197;-66
2021/04/04 12:00:23;;;;;;;4.57;3.00;;;;;;;;;;5095240;28;20203;-66
2021/04/04 12:02:58;;;;;;;4.05;3.67;;;;;;;;;;5095684;28;20182;-67
2021/04/04 12:05:26;;;;;;;4.57;3.45;;;;;;;;;;5096205;28;20186;-67
2021/04/04 12:07:53;;;;;;;5.65;3.45;;;;;;;;;;5095999;28;20226;-67
2021/04/04 12:10:22;;;;;;;8.32;3.95;;;;;;;;;;5096946;28;20288;-66
2021/04/04 12:12:51;;;;;;;5.20;3.30;;;;;;;;;;5095138;28;20288;-66
2021/04/04 12:15:18;;;;;;;6.22;3.45;;;;;;;;;;5095938;28;20254;-66
2021/04/04 12:17:49;;;;;;;6.88;3.92;;;;;;;;;;5095694;28;20200;-66
2021/04/04 12:20:17;;;;;;;4.05;3.20;;;;;;;;;;5095611;28;20208;-67
2021/04/04 12:22:44;;;;;;;5.90;3.45;;;;;;;;;;5106581;28;20537;-67
2021/04/04 12:25:12;;;;;;;8.88;3.97;;;;;;;;;;5115588;28;20220;-66
2021/04/04 12:27:41;;;;;;;4.45;2.80;;;;;;;;;;5116022;28;20635;-66
2021/04/04 12:30:14;;;;;;;7.30;3.88;;;;;;;;;;5115341;28;20196;-67
2021/04/04 12:32:42;;;;;;;7.25;3.70;;;;;;;;;;5115920;28;20268;-67
2021/04/04 12:35:09;;;;;;;9.20;3.70;;;;;;;;;;5114968;28;20228;-67
2021/04/04 12:37:37;;;;;;;11.50;3.80;;;;;;;;;;5114729;28;20666;-67
2021/04/04 12:40:05;;;;;;;3.60;3.05;;;;;;;;;;5114554;28;20745;-67
2021/04/04 12:42:33;;;;;;;5.80;3.50;;;;;;;;;;5114407;28;20230;-66
2021/04/04 12:45:03;;;;;;;6.82;3.67;;;;;;;;;;5114897;28;20241;-66
2021/04/04 12:47:30;;;;;;;5.85;4.43;;;;;;;;;;5114968;28;20221;-67
2021/04/04 12:49:57;;;;;;;6.90;3.83;;;;;;;;;;5114747;28;20232;-67
2021/04/04 12:52:38;;;;;;;7.95;4.00;;;;;;;;;;5114427;28;20246;-67
2021/04/04 12:55:15;;;;;;;4.13;3.28;;;;;;;;;;5114473;28;20650;-67
2021/04/04 12:57:43;;;;;;;6.70;3.85;;;;;;;;;;5114435;28;20705;-67
2021/04/04 13:00:15;;;;;;;6.22;3.72;;;;;;;;;;5114272;28;20765;-68
2021/04/04 13:02:50;;;;;;;10.70;4.75;;;;;;;;;;5114460;28;20228;-67
2021/04/04 13:05:17;;;;;;;8.02;4.13;;;;;;;;;;5114606;28;20276;-66
2021/04/04 13:07:44;;;;;;;6.10;3.60;;;;;;;;;;5114270;28;20267;-66
2021/04/04 13:10:11;;;;;;;6.60;3.50;;;;;;;;;;5114591;28;20203;-66
2021/04/04 13:12:38;;;;;;;11.43;3.97;;;;;;;;;;5115029;28;20552;-67
2021/04/04 13:15:06;;;;;;;9.10;4.18;;;;;;;;;;5114840;28;20288;-67
2021/04/04 13:17:39;;;;;;;7.65;4.45;;;;;;;;;;5114310;28;20260;-67
2021/04/04 13:20:06;;;;;;;8.75;4.22;;;;;;;;;;5113465;28;20272;-67
2021/04/04 13:22:35;;;;;;;5.88;3.72;;;;;;;;;;5113934;28;20241;-67
2021/04/04 13:25:01;;;;;;;13.00;4.32;;;;;;;;;;5113661;28;20354;-67
2021/04/04 13:27:28;;;;;;;4.20;3.80;;;;;;;;;;5113465;28;20193;-67
2021/04/04 13:29:55;;;;;;;6.50;4.28;;;;;;;;;;5114093;28;20217;-66
2021/04/04 13:32:22;;;;;;;7.82;4.05;;;;;;;;;;5114203;28;20189;-66
2021/04/04 13:34:50;;;;;;;6.45;4.15;;;;;;;;;;5113705;28;20202;-66
2021/04/04 13:37:17;;;;;;;7.72;4.55;;;;;;;;;;5113722;28;20575;-67
2021/04/04 13:39:44;;;;;;;6.68;4.95;;;;;;;;;;5113754;28;20202;-66
2021/04/04 13:42:11;;;;;;;9.38;4.25;;;;;;;;;;5114068;28;20199;-67
2021/04/04 13:44:42;;;;;;;13.13;4.97;;;;;;;;;;5113775;28;20281;-66
2021/04/04 13:47:19;;;;;;;5.55;3.95;;;;;;;;;;5113152;28;20205;-66
2021/04/04 13:49:46;;;;;;;8.07;4.40;;;;;;;;;;5113598;28;20657;-66
2021/04/04 13:52:15;;;;;;;8.02;4.05;;;;;;;;;;5113610;28;20229;-67
2021/04/04 13:54:42;;;;;;;8.40;3.72;;;;;;;;;;5114186;28;20255;-66
2021/04/04 13:57:11;;;;;;;9.40;3.95;;;;;;;;;;5113452;28;20225;-66
2021/04/04 13:59:48;;;;;;;11.73;5.00;;;;;;;;;;5114106;28;20197;-66
2021/04/04 14:02:17;;;;;;;9.18;4.55;;;;;;;;;;5113494;28;20182;-68
2021/04/04 14:04:44;;;;;;;9.45;4.47;;;;;;;;;;5113374;28;20221;-65
2021/04/04 14:07:14;;;;;;;6.57;5.30;;;;;;;;;;5112808;28;20660;-66
2021/04/04 14:09:42;;;;;;;7.38;4.45;;;;;;;;;;5114207;28;20220;-65
2021/04/04 14:12:09;;;;;;;14.23;6.32;;;;;;;;;;5113696;28;20276;-66
2021/04/04 14:14:37;;;;;;;5.20;4.70;;;;;;;;;;5113427;28;20726;-66
2021/04/04 14:17:04;;;;;;;10.32;4.50;;;;;;;;;;5113318;28;20748;-66
2021/04/04 14:19:31;;;;;;;6.15;4.50;;;;;;;;;;5113604;28;20281;-66
2021/04/04 14:21:59;;;;;;;7.90;4.53;;;;;;;;;;5114328;28;20295;-67
2021/04/04 14:24:26;;;;;;;6.25;4.75;;;;;;;;;;5113559;28;20197;-66
2021/04/04 14:26:53;;;;;;;8.25;4.88;;;;;;;;;;5112973;28;20719;-66
2021/04/04 14:29:26;;;;;;;8.48;5.07;;;;;;;;;;5113333;28;20228;-67
2021/04/04 14:31:53;;;;;;;11.23;4.55;;;;;;;;;;5113640;28;20312;-66
2021/04/04 14:34:20;;;;;;;5.78;4.40;;;;;;;;;;5113454;28;20193;-66
2021/04/04 14:36:47;;;;;;;5.47;3.90;;;;;;;;;;5115183;28;20738;-66
2021/04/04 14:39:14;;;;;;;7.95;4.65;;;;;;;;;;5117600;28;20236;-67
2021/04/04 14:41:41;;;;;;;4.43;3.85;;;;;;;;;;5117457;28;20302;-67
2021/04/04 14:44:15;;;;;;;8.73;4.80;;;;;;;;;;5116625;28;20240;-67
2021/04/04 14:46:42;;;;;;;5.60;4.50;;;;;;;;;;5116559;28;20182;-67
2021/04/04 14:49:09;;;;;;;4.72;3.97;;;;;;;;;;5116859;28;20277;-67